sensor_id;sensor_type;location;lat;lon;timestamp;P1;durP1;ratioP1;P2;durP2;ratioP2
48813;SDS011;34634;44.108;3.074;2023-03-12T00:01:37;5.28;;;1.35;;
48813;SDS011;34634;44.108;3.074;2023-03-12T00:04:04;10.02;;;1.40;;
48813;SDS011;34634;44.108;3.074;2023-03-12T00:06:30;10.68;;;1.80;;
48813;SDS011;34634;44.108;3.074;2023-03-12T00:08:57;6.57;;;1.38;;
48813;SDS011;34634;44.108;3.074;2023-03-12T00:11:26;11.15;;;1.92;;
48813;SDS011;34634;44.108;3.074;2023-03-12T00:13:54;6.38;;;1.63;;
48813;SDS011;34634;44.108;3.074;2023-03-12T00:16:20;10.20;;;1.88;;
48813;SDS011;34634;44.108;3.074;2023-03-12T00:18:49;6.25;;;1.50;;
48813;SDS011;34634;44.108;3.074;2023-03-12T00:21:16;8.60;;;1.88;;
48813;SDS011;34634;44.108;3.074;2023-03-12T00:23:43;6.50;;;1.75;;
48813;SDS011;34634;44.108;3.074;2023-03-12T00:26:10;6.10;;;1.67;;
48813;SDS011;34634;44.108;3.074;2023-03-12T00:28:37;8.40;;;1.73;;
48813;SDS011;34634;44.108;3.074;2023-03-12T00:31:12;10.50;;;2.03;;
48813;SDS011;34634;44.108;3.074;2023-03-12T00:33:39;12.50;;;2.25;;
48813;SDS011;34634;44.108;3.074;2023-03-12T00:36:05;8.73;;;2.28;;
48813;SDS011;34634;44.108;3.074;2023-03-12T00:38:32;8.82;;;1.85;;
48813;SDS011;34634;44.108;3.074;2023-03-12T00:40:58;9.35;;;1.77;;
48813;SDS011;34634;44.108;3.074;2023-03-12T00:43:24;8.52;;;2.15;;
48813;SDS011;34634;44.108;3.074;2023-03-12T00:45:52;12.90;;;2.17;;
48813;SDS011;34634;44.108;3.074;2023-03-12T00:48:18;10.35;;;2.28;;
48813;SDS011;34634;44.108;3.074;2023-03-12T00:50:44;11.63;;;2.20;;
48813;SDS011;34634;44.108;3.074;2023-03-12T00:53:11;12.13;;;1.80;;
48813;SDS011;34634;44.108;3.074;2023-03-12T00:55:37;8.25;;;1.67;;
48813;SDS011;34634;44.108;3.074;2023-03-12T00:58:03;8.50;;;1.75;;
48813;SDS011;34634;44.108;3.074;2023-03-12T01:00:30;7.70;;;2.00;;
48813;SDS011;34634;44.108;3.074;2023-03-12T01:02:57;5.93;;;1.75;;
48813;SDS011;34634;44.108;3.074;2023-03-12T01:05:23;7.25;;;1.67;;
48813;SDS011;34634;44.108;3.074;2023-03-12T01:07:49;7.95;;;2.03;;
48813;SDS011;34634;44.108;3.074;2023-03-12T01:10:16;12.35;;;2.08;;
48813;SDS011;34634;44.108;3.074;2023-03-12T01:12:44;7.32;;;1.75;;
48813;SDS011;34634;44.108;3.074;2023-03-12T01:15:14;8.35;;;2.15;;
48813;SDS011;34634;44.108;3.074;2023-03-12T01:17:41;9.32;;;1.80;;
48813;SDS011;34634;44.108;3.074;2023-03-12T01:20:07;7.30;;;1.60;;
48813;SDS011;34634;44.108;3.074;2023-03-12T01:22:34;7.68;;;1.80;;
48813;SDS011;34634;44.108;3.074;2023-03-12T01:25:00;9.65;;;2.00;;
48813;SDS011;34634;44.108;3.074;2023-03-12T01:27:27;6.13;;;1.65;;
48813;SDS011;34634;44.108;3.074;2023-03-12T01:29:53;5.63;;;1.70;;
48813;SDS011;34634;44.108;3.074;2023-03-12T01:32:20;13.18;;;2.03;;
48813;SDS011;34634;44.108;3.074;2023-03-12T01:34:46;13.30;;;1.90;;
48813;SDS011;34634;44.108;3.074;2023-03-12T01:37:12;9.02;;;1.88;;
48813;SDS011;34634;44.108;3.074;2023-03-12T01:39:39;10.07;;;1.75;;
48813;SDS011;34634;44.108;3.074;2023-03-12T01:42:05;11.10;;;1.92;;
48813;SDS011;34634;44.108;3.074;2023-03-12T01:47:33;14.48;;;1.90;;
48813;SDS011;34634;44.108;3.074;2023-03-12T01:50:00;11.90;;;2.13;;
48813;SDS011;34634;44.108;3.074;2023-03-12T01:52:31;10.90;;;2.67;;
48813;SDS011;34634;44.108;3.074;2023-03-12T01:55:05;10.18;;;2.60;;
48813;SDS011;34634;44.108;3.074;2023-03-12T02:00:02;8.88;;;2.55;;
48813;SDS011;34634;44.108;3.074;2023-03-12T02:02:31;10.15;;;2.30;;
48813;SDS011;34634;44.108;3.074;2023-03-12T02:05:02;16.08;;;3.30;;
48813;SDS011;34634;44.108;3.074;2023-03-12T02:07:30;13.05;;;3.08;;
48813;SDS011;34634;44.108;3.074;2023-03-12T02:09:56;12.85;;;2.65;;
48813;SDS011;34634;44.108;3.074;2023-03-12T02:12:22;10.90;;;2.78;;
48813;SDS011;34634;44.108;3.074;2023-03-12T02:14:49;15.35;;;2.95;;
48813;SDS011;34634;44.108;3.074;2023-03-12T02:17:15;9.98;;;2.47;;
48813;SDS011;34634;44.108;3.074;2023-03-12T02:22:08;11.35;;;2.10;;
48813;SDS011;34634;44.108;3.074;2023-03-12T02:24:46;10.65;;;2.08;;
48813;SDS011;34634;44.108;3.074;2023-03-12T02:27:13;8.70;;;1.77;;
48813;SDS011;34634;44.108;3.074;2023-03-12T02:29:41;10.23;;;1.77;;
48813;SDS011;34634;44.108;3.074;2023-03-12T02:32:08;7.95;;;1.80;;
48813;SDS011;34634;44.108;3.074;2023-03-12T02:34:36;10.48;;;1.83;;
48813;SDS011;34634;44.108;3.074;2023-03-12T02:37:02;9.40;;;1.60;;
48813;SDS011;34634;44.108;3.074;2023-03-12T02:39:28;8.75;;;1.77;;
48813;SDS011;34634;44.108;3.074;2023-03-12T02:41:55;13.00;;;2.00;;
48813;SDS011;34634;44.108;3.074;2023-03-12T02:44:31;10.57;;;2.25;;
48813;SDS011;34634;44.108;3.074;2023-03-12T02:46:58;11.52;;;1.42;;
48813;SDS011;34634;44.108;3.074;2023-03-12T02:49:26;10.48;;;1.98;;
48813;SDS011;34634;44.108;3.074;2023-03-12T02:51:53;13.63;;;1.80;;
48813;SDS011;34634;44.108;3.074;2023-03-12T02:54:20;7.88;;;1.85;;
48813;SDS011;34634;44.108;3.074;2023-03-12T02:56:46;7.47;;;1.40;;
48813;SDS011;34634;44.108;3.074;2023-03-12T02:59:14;12.20;;;2.13;;
48813;SDS011;34634;44.108;3.074;2023-03-12T03:01:40;9.27;;;1.65;;
48813;SDS011;34634;44.108;3.074;2023-03-12T03:04:08;11.20;;;1.90;;
48813;SDS011;34634;44.108;3.074;2023-03-12T03:06:35;8.65;;;1.58;;
48813;SDS011;34634;44.108;3.074;2023-03-12T03:09:02;15.70;;;2.33;;
48813;SDS011;34634;44.108;3.074;2023-03-12T03:11:29;14.27;;;1.63;;
48813;SDS011;34634;44.108;3.074;2023-03-12T03:13:55;9.48;;;2.00;;
48813;SDS011;34634;44.108;3.074;2023-03-12T03:16:22;12.63;;;2.10;;
48813;SDS011;34634;44.108;3.074;2023-03-12T03:18:49;8.88;;;1.85;;
48813;SDS011;34634;44.108;3.074;2023-03-12T03:21:16;13.18;;;2.67;;
48813;SDS011;34634;44.108;3.074;2023-03-12T03:23:43;12.90;;;1.80;;
48813;SDS011;34634;44.108;3.074;2023-03-12T03:26:10;12.93;;;2.08;;
48813;SDS011;34634;44.108;3.074;2023-03-12T03:28:36;8.95;;;2.15;;
48813;SDS011;34634;44.108;3.074;2023-03-12T03:31:03;10.25;;;2.00;;
48813;SDS011;34634;44.108;3.074;2023-03-12T03:33:31;11.32;;;2.45;;
48813;SDS011;34634;44.108;3.074;2023-03-12T03:35:57;10.55;;;2.00;;
48813;SDS011;34634;44.108;3.074;2023-03-12T03:38:24;14.25;;;2.33;;
48813;SDS011;34634;44.108;3.074;2023-03-12T03:40:51;12.05;;;1.95;;
48813;SDS011;34634;44.108;3.074;2023-03-12T03:43:18;11.73;;;2.30;;
48813;SDS011;34634;44.108;3.074;2023-03-12T03:45:44;8.18;;;1.70;;
48813;SDS011;34634;44.108;3.074;2023-03-12T03:48:11;11.52;;;2.55;;
48813;SDS011;34634;44.108;3.074;2023-03-12T03:50:38;8.95;;;1.77;;
48813;SDS011;34634;44.108;3.074;2023-03-12T03:53:05;18.95;;;2.30;;
48813;SDS011;34634;44.108;3.074;2023-03-12T03:55:34;9.85;;;2.15;;
48813;SDS011;34634;44.108;3.074;2023-03-12T03:58:01;12.13;;;2.10;;
48813;SDS011;34634;44.108;3.074;2023-03-12T04:00:27;10.93;;;2.05;;
48813;SDS011;34634;44.108;3.074;2023-03-12T04:02:54;9.80;;;2.42;;
48813;SDS011;34634;44.108;3.074;2023-03-12T04:05:20;12.88;;;2.35;;
48813;SDS011;34634;44.108;3.074;2023-03-12T04:07:46;10.60;;;1.83;;
48813;SDS011;34634;44.108;3.074;2023-03-12T04:10:13;14.73;;;2.40;;
48813;SDS011;34634;44.108;3.074;2023-03-12T04:12:39;9.23;;;2.22;;
48813;SDS011;34634;44.108;3.074;2023-03-12T04:15:06;11.68;;;2.38;;
48813;SDS011;34634;44.108;3.074;2023-03-12T04:17:32;18.38;;;4.72;;
48813;SDS011;34634;44.108;3.074;2023-03-12T04:19:58;17.95;;;5.60;;
48813;SDS011;34634;44.108;3.074;2023-03-12T04:22:25;17.88;;;5.90;;
48813;SDS011;34634;44.108;3.074;2023-03-12T04:24:51;17.15;;;5.72;;
48813;SDS011;34634;44.108;3.074;2023-03-12T04:27:17;11.68;;;4.75;;
48813;SDS011;34634;44.108;3.074;2023-03-12T04:29:44;13.60;;;4.75;;
48813;SDS011;34634;44.108;3.074;2023-03-12T04:32:10;13.98;;;3.47;;
48813;SDS011;34634;44.108;3.074;2023-03-12T04:34:36;15.98;;;3.47;;
48813;SDS011;34634;44.108;3.074;2023-03-12T04:37:03;16.42;;;3.50;;
48813;SDS011;34634;44.108;3.074;2023-03-12T04:39:29;14.90;;;3.60;;
48813;SDS011;34634;44.108;3.074;2023-03-12T04:41:55;16.02;;;2.92;;
48813;SDS011;34634;44.108;3.074;2023-03-12T04:44:22;10.65;;;2.30;;
48813;SDS011;34634;44.108;3.074;2023-03-12T04:46:48;12.63;;;2.63;;
48813;SDS011;34634;44.108;3.074;2023-03-12T04:49:14;11.88;;;2.17;;
48813;SDS011;34634;44.108;3.074;2023-03-12T04:51:41;12.80;;;2.45;;
48813;SDS011;34634;44.108;3.074;2023-03-12T04:54:07;13.23;;;2.42;;
48813;SDS011;34634;44.108;3.074;2023-03-12T04:56:33;18.88;;;2.78;;
48813;SDS011;34634;44.108;3.074;2023-03-12T04:59:00;11.55;;;2.17;;
48813;SDS011;34634;44.108;3.074;2023-03-12T05:01:27;7.13;;;1.92;;
48813;SDS011;34634;44.108;3.074;2023-03-12T05:03:54;11.60;;;2.47;;
48813;SDS011;34634;44.108;3.074;2023-03-12T05:06:21;10.88;;;2.00;;
48813;SDS011;34634;44.108;3.074;2023-03-12T05:08:48;14.73;;;2.35;;
48813;SDS011;34634;44.108;3.074;2023-03-12T05:11:15;8.73;;;2.03;;
48813;SDS011;34634;44.108;3.074;2023-03-12T05:13:41;11.40;;;2.10;;
48813;SDS011;34634;44.108;3.074;2023-03-12T05:16:08;14.15;;;2.30;;
48813;SDS011;34634;44.108;3.074;2023-03-12T05:18:34;9.38;;;2.30;;
48813;SDS011;34634;44.108;3.074;2023-03-12T05:21:02;13.60;;;2.47;;
48813;SDS011;34634;44.108;3.074;2023-03-12T05:23:29;9.82;;;1.95;;
48813;SDS011;34634;44.108;3.074;2023-03-12T05:25:55;11.40;;;2.00;;
48813;SDS011;34634;44.108;3.074;2023-03-12T05:28:22;8.95;;;2.00;;
48813;SDS011;34634;44.108;3.074;2023-03-12T05:30:53;13.77;;;2.33;;
48813;SDS011;34634;44.108;3.074;2023-03-12T05:33:19;13.05;;;2.58;;
48813;SDS011;34634;44.108;3.074;2023-03-12T05:35:46;13.98;;;2.60;;
48813;SDS011;34634;44.108;3.074;2023-03-12T05:38:12;12.95;;;2.25;;
48813;SDS011;34634;44.108;3.074;2023-03-12T05:40:38;19.17;;;2.55;;
48813;SDS011;34634;44.108;3.074;2023-03-12T05:43:05;16.35;;;2.95;;
48813;SDS011;34634;44.108;3.074;2023-03-12T05:45:31;15.38;;;2.65;;
48813;SDS011;34634;44.108;3.074;2023-03-12T05:47:58;11.18;;;3.05;;
48813;SDS011;34634;44.108;3.074;2023-03-12T05:50:24;9.93;;;2.47;;
48813;SDS011;34634;44.108;3.074;2023-03-12T05:52:51;11.20;;;2.55;;
48813;SDS011;34634;44.108;3.074;2023-03-12T05:55:17;13.18;;;2.33;;
48813;SDS011;34634;44.108;3.074;2023-03-12T05:57:43;12.43;;;2.38;;
48813;SDS011;34634;44.108;3.074;2023-03-12T06:00:11;11.73;;;2.20;;
48813;SDS011;34634;44.108;3.074;2023-03-12T06:02:38;8.05;;;2.38;;
48813;SDS011;34634;44.108;3.074;2023-03-12T06:05:04;17.20;;;3.38;;
48813;SDS011;34634;44.108;3.074;2023-03-12T06:07:31;9.95;;;2.05;;
48813;SDS011;34634;44.108;3.074;2023-03-12T06:09:57;13.18;;;2.38;;
48813;SDS011;34634;44.108;3.074;2023-03-12T06:12:24;9.32;;;1.85;;
48813;SDS011;34634;44.108;3.074;2023-03-12T06:14:50;10.75;;;2.05;;
48813;SDS011;34634;44.108;3.074;2023-03-12T06:17:16;13.15;;;2.35;;
48813;SDS011;34634;44.108;3.074;2023-03-12T06:19:43;9.93;;;2.28;;
48813;SDS011;34634;44.108;3.074;2023-03-12T06:22:09;13.68;;;2.47;;
48813;SDS011;34634;44.108;3.074;2023-03-12T06:24:35;13.10;;;2.67;;
48813;SDS011;34634;44.108;3.074;2023-03-12T06:27:02;11.43;;;2.65;;
48813;SDS011;34634;44.108;3.074;2023-03-12T06:29:28;8.32;;;2.10;;
48813;SDS011;34634;44.108;3.074;2023-03-12T06:31:54;11.00;;;2.63;;
48813;SDS011;34634;44.108;3.074;2023-03-12T06:34:21;11.73;;;2.40;;
48813;SDS011;34634;44.108;3.074;2023-03-12T06:36:47;9.90;;;1.85;;
48813;SDS011;34634;44.108;3.074;2023-03-12T06:39:13;9.57;;;2.20;;
48813;SDS011;34634;44.108;3.074;2023-03-12T06:41:40;11.90;;;2.05;;
48813;SDS011;34634;44.108;3.074;2023-03-12T06:44:06;11.48;;;2.78;;
48813;SDS011;34634;44.108;3.074;2023-03-12T06:46:32;8.88;;;2.20;;
48813;SDS011;34634;44.108;3.074;2023-03-12T06:48:59;11.25;;;3.35;;
48813;SDS011;34634;44.108;3.074;2023-03-12T06:51:25;10.85;;;2.90;;
48813;SDS011;34634;44.108;3.074;2023-03-12T06:53:51;13.98;;;3.00;;
48813;SDS011;34634;44.108;3.074;2023-03-12T06:56:18;12.93;;;2.30;;
48813;SDS011;34634;44.108;3.074;2023-03-12T06:58:44;11.68;;;2.50;;
48813;SDS011;34634;44.108;3.074;2023-03-12T07:01:10;12.55;;;2.45;;
48813;SDS011;34634;44.108;3.074;2023-03-12T07:03:36;13.60;;;2.78;;
48813;SDS011;34634;44.108;3.074;2023-03-12T07:06:03;20.42;;;3.72;;
48813;SDS011;34634;44.108;3.074;2023-03-12T07:08:29;18.85;;;2.50;;
48813;SDS011;34634;44.108;3.074;2023-03-12T07:10:57;14.05;;;2.75;;
48813;SDS011;34634;44.108;3.074;2023-03-12T07:13:24;14.60;;;3.00;;
48813;SDS011;34634;44.108;3.074;2023-03-12T07:15:50;14.32;;;3.28;;
48813;SDS011;34634;44.108;3.074;2023-03-12T07:18:17;14.50;;;3.47;;
48813;SDS011;34634;44.108;3.074;2023-03-12T07:20:43;14.93;;;3.42;;
48813;SDS011;34634;44.108;3.074;2023-03-12T07:23:11;10.02;;;3.00;;
48813;SDS011;34634;44.108;3.074;2023-03-12T07:25:38;14.43;;;3.58;;
48813;SDS011;34634;44.108;3.074;2023-03-12T07:28:05;10.85;;;2.58;;
48813;SDS011;34634;44.108;3.074;2023-03-12T07:30:32;16.85;;;2.78;;
48813;SDS011;34634;44.108;3.074;2023-03-12T07:33:02;10.52;;;2.42;;
48813;SDS011;34634;44.108;3.074;2023-03-12T07:35:28;11.45;;;3.22;;
48813;SDS011;34634;44.108;3.074;2023-03-12T07:37:55;17.48;;;2.50;;
48813;SDS011;34634;44.108;3.074;2023-03-12T07:40:22;11.30;;;2.42;;
48813;SDS011;34634;44.108;3.074;2023-03-12T07:42:51;12.55;;;2.33;;
48813;SDS011;34634;44.108;3.074;2023-03-12T07:45:17;15.88;;;2.90;;
48813;SDS011;34634;44.108;3.074;2023-03-12T07:47:44;12.43;;;2.33;;
48813;SDS011;34634;44.108;3.074;2023-03-12T07:50:10;14.35;;;2.40;;
48813;SDS011;34634;44.108;3.074;2023-03-12T07:52:37;13.40;;;2.10;;
48813;SDS011;34634;44.108;3.074;2023-03-12T07:55:03;15.50;;;2.38;;
48813;SDS011;34634;44.108;3.074;2023-03-12T07:57:30;12.55;;;2.10;;
48813;SDS011;34634;44.108;3.074;2023-03-12T07:59:56;13.40;;;1.77;;
48813;SDS011;34634;44.108;3.074;2023-03-12T08:02:22;11.98;;;2.70;;
48813;SDS011;34634;44.108;3.074;2023-03-12T08:04:49;10.23;;;2.47;;
48813;SDS011;34634;44.108;3.074;2023-03-12T08:07:15;14.88;;;2.35;;
48813;SDS011;34634;44.108;3.074;2023-03-12T08:09:41;11.45;;;1.67;;
48813;SDS011;34634;44.108;3.074;2023-03-12T08:12:08;9.95;;;1.45;;
48813;SDS011;34634;44.108;3.074;2023-03-12T08:14:34;10.82;;;2.45;;
48813;SDS011;34634;44.108;3.074;2023-03-12T08:17:01;10.60;;;2.50;;
48813;SDS011;34634;44.108;3.074;2023-03-12T08:19:27;7.15;;;1.83;;
48813;SDS011;34634;44.108;3.074;2023-03-12T08:21:53;7.82;;;1.23;;
48813;SDS011;34634;44.108;3.074;2023-03-12T08:24:20;9.05;;;1.58;;
48813;SDS011;34634;44.108;3.074;2023-03-12T08:26:46;6.38;;;1.42;;
48813;SDS011;34634;44.108;3.074;2023-03-12T08:29:13;8.10;;;1.60;;
48813;SDS011;34634;44.108;3.074;2023-03-12T08:31:39;9.02;;;1.58;;
48813;SDS011;34634;44.108;3.074;2023-03-12T08:34:06;7.22;;;1.38;;
48813;SDS011;34634;44.108;3.074;2023-03-12T08:36:32;8.30;;;1.63;;
48813;SDS011;34634;44.108;3.074;2023-03-12T08:39:00;7.60;;;1.42;;
48813;SDS011;34634;44.108;3.074;2023-03-12T08:41:26;4.93;;;1.25;;
48813;SDS011;34634;44.108;3.074;2023-03-12T08:43:54;5.25;;;1.60;;
48813;SDS011;34634;44.108;3.074;2023-03-12T08:46:20;6.45;;;1.05;;
48813;SDS011;34634;44.108;3.074;2023-03-12T08:48:47;5.63;;;1.05;;
48813;SDS011;34634;44.108;3.074;2023-03-12T08:51:13;5.25;;;1.70;;
48813;SDS011;34634;44.108;3.074;2023-03-12T08:53:39;7.35;;;1.48;;
48813;SDS011;34634;44.108;3.074;2023-03-12T08:56:06;6.00;;;1.35;;
48813;SDS011;34634;44.108;3.074;2023-03-12T08:58:32;5.35;;;1.88;;
48813;SDS011;34634;44.108;3.074;2023-03-12T09:00:58;3.55;;;1.20;;
48813;SDS011;34634;44.108;3.074;2023-03-12T09:03:25;5.30;;;1.55;;
48813;SDS011;34634;44.108;3.074;2023-03-12T09:06:01;5.78;;;1.50;;
48813;SDS011;34634;44.108;3.074;2023-03-12T09:08:27;5.10;;;1.65;;
48813;SDS011;34634;44.108;3.074;2023-03-12T09:10:54;7.05;;;1.92;;
48813;SDS011;34634;44.108;3.074;2023-03-12T09:13:20;4.72;;;1.50;;
48813;SDS011;34634;44.108;3.074;2023-03-12T09:15:46;4.00;;;1.88;;
48813;SDS011;34634;44.108;3.074;2023-03-12T09:18:12;5.82;;;1.55;;
48813;SDS011;34634;44.108;3.074;2023-03-12T09:20:40;6.10;;;1.38;;
48813;SDS011;34634;44.108;3.074;2023-03-12T09:23:07;3.03;;;1.10;;
48813;SDS011;34634;44.108;3.074;2023-03-12T09:25:33;2.88;;;1.00;;
48813;SDS011;34634;44.108;3.074;2023-03-12T09:27:59;4.03;;;0.70;;
48813;SDS011;34634;44.108;3.074;2023-03-12T09:30:26;3.25;;;1.13;;
48813;SDS011;34634;44.108;3.074;2023-03-12T09:32:54;8.20;;;1.50;;
48813;SDS011;34634;44.108;3.074;2023-03-12T09:35:20;2.08;;;1.02;;
48813;SDS011;34634;44.108;3.074;2023-03-12T09:37:47;2.47;;;0.70;;
48813;SDS011;34634;44.108;3.074;2023-03-12T09:40:16;3.17;;;1.00;;
48813;SDS011;34634;44.108;3.074;2023-03-12T09:42:45;3.90;;;0.90;;
48813;SDS011;34634;44.108;3.074;2023-03-12T09:45:15;3.20;;;0.80;;
48813;SDS011;34634;44.108;3.074;2023-03-12T09:47:45;3.25;;;1.05;;
48813;SDS011;34634;44.108;3.074;2023-03-12T09:55:31;3.22;;;0.95;;
48813;SDS011;34634;44.108;3.074;2023-03-12T09:58:00;1.52;;;0.73;;
48813;SDS011;34634;44.108;3.074;2023-03-12T10:00:30;1.70;;;0.50;;
48813;SDS011;34634;44.108;3.074;2023-03-12T10:08:34;1.35;;;0.70;;
48813;SDS011;34634;44.108;3.074;2023-03-12T10:16:10;0.88;;;0.50;;
48813;SDS011;34634;44.108;3.074;2023-03-12T10:26:34;2.72;;;1.05;;
48813;SDS011;34634;44.108;3.074;2023-03-12T10:29:03;1.05;;;0.70;;
48813;SDS011;34634;44.108;3.074;2023-03-12T10:31:33;1.67;;;0.70;;
48813;SDS011;34634;44.108;3.074;2023-03-12T10:34:01;4.05;;;0.90;;
48813;SDS011;34634;44.108;3.074;2023-03-12T10:36:37;1.70;;;0.65;;
48813;SDS011;34634;44.108;3.074;2023-03-12T10:39:08;4.10;;;0.50;;
48813;SDS011;34634;44.108;3.074;2023-03-12T10:41:36;2.65;;;0.90;;
48813;SDS011;34634;44.108;3.074;2023-03-12T10:44:05;2.10;;;0.68;;
48813;SDS011;34634;44.108;3.074;2023-03-12T10:54:25;2.40;;;0.73;;
48813;SDS011;34634;44.108;3.074;2023-03-12T10:56:52;1.42;;;0.70;;
48813;SDS011;34634;44.108;3.074;2023-03-12T10:59:19;1.50;;;1.20;;
48813;SDS011;34634;44.108;3.074;2023-03-12T11:01:47;1.50;;;0.80;;
48813;SDS011;34634;44.108;3.074;2023-03-12T11:04:25;9.60;;;0.77;;
48813;SDS011;34634;44.108;3.074;2023-03-12T11:09:37;0.82;;;0.50;;
48813;SDS011;34634;44.108;3.074;2023-03-12T11:12:20;0.63;;;0.38;;
48813;SDS011;34634;44.108;3.074;2023-03-12T11:14:47;0.82;;;0.40;;
48813;SDS011;34634;44.108;3.074;2023-03-12T11:17:20;2.45;;;0.68;;
48813;SDS011;34634;44.108;3.074;2023-03-12T11:19:47;1.02;;;0.40;;
48813;SDS011;34634;44.108;3.074;2023-03-12T11:22:14;0.68;;;0.47;;
48813;SDS011;34634;44.108;3.074;2023-03-12T11:24:55;0.40;;;0.40;;
48813;SDS011;34634;44.108;3.074;2023-03-12T11:29:51;2.67;;;0.60;;
48813;SDS011;34634;44.108;3.074;2023-03-12T11:32:20;1.52;;;0.60;;
48813;SDS011;34634;44.108;3.074;2023-03-12T11:34:48;1.10;;;0.50;;
48813;SDS011;34634;44.108;3.074;2023-03-12T11:42:33;4.35;;;0.88;;
48813;SDS011;34634;44.108;3.074;2023-03-12T11:45:07;1.50;;;0.90;;
48813;SDS011;34634;44.108;3.074;2023-03-12T11:50:36;1.90;;;0.85;;
48813;SDS011;34634;44.108;3.074;2023-03-12T11:53:39;1.23;;;0.80;;
48813;SDS011;34634;44.108;3.074;2023-03-12T12:01:10;1.88;;;0.75;;
48813;SDS011;34634;44.108;3.074;2023-03-12T12:06:21;1.40;;;0.65;;
48813;SDS011;34634;44.108;3.074;2023-03-12T12:11:36;1.85;;;0.70;;
48813;SDS011;34634;44.108;3.074;2023-03-12T12:24:33;1.02;;;0.60;;
48813;SDS011;34634;44.108;3.074;2023-03-12T12:30:17;2.15;;;0.93;;
48813;SDS011;34634;44.108;3.074;2023-03-12T12:33:07;1.20;;;0.80;;
48813;SDS011;34634;44.108;3.074;2023-03-12T12:35:18;0.98;;;0.70;;
48813;SDS011;34634;44.108;3.074;2023-03-12T12:40:52;2.28;;;0.57;;
48813;SDS011;34634;44.108;3.074;2023-03-12T12:43:25;1.17;;;0.60;;
48813;SDS011;34634;44.108;3.074;2023-03-12T12:45:58;1.48;;;0.47;;
48813;SDS011;34634;44.108;3.074;2023-03-12T12:48:26;2.42;;;0.82;;
48813;SDS011;34634;44.108;3.074;2023-03-12T12:50:53;1.63;;;0.60;;
48813;SDS011;34634;44.108;3.074;2023-03-12T12:58:32;0.82;;;0.70;;
48813;SDS011;34634;44.108;3.074;2023-03-12T13:01:01;1.02;;;0.60;;
48813;SDS011;34634;44.108;3.074;2023-03-12T13:03:28;1.45;;;0.68;;
48813;SDS011;34634;44.108;3.074;2023-03-12T13:05:59;1.20;;;0.85;;
48813;SDS011;34634;44.108;3.074;2023-03-12T13:09:12;1.38;;;0.90;;
48813;SDS011;34634;44.108;3.074;2023-03-12T13:13:44;0.98;;;0.60;;
48813;SDS011;34634;44.108;3.074;2023-03-12T13:16:18;2.40;;;0.68;;
48813;SDS011;34634;44.108;3.074;2023-03-12T13:19:00;1.70;;;0.80;;
48813;SDS011;34634;44.108;3.074;2023-03-12T13:21:30;1.30;;;0.77;;
48813;SDS011;34634;44.108;3.074;2023-03-12T13:26:48;1.77;;;0.70;;
48813;SDS011;34634;44.108;3.074;2023-03-12T13:31:45;0.95;;;0.68;;
48813;SDS011;34634;44.108;3.074;2023-03-12T13:36:45;5.22;;;0.60;;
48813;SDS011;34634;44.108;3.074;2023-03-12T13:49:35;0.82;;;0.60;;
48813;SDS011;34634;44.108;3.074;2023-03-12T13:52:21;1.48;;;0.40;;
48813;SDS011;34634;44.108;3.074;2023-03-12T13:54:56;0.60;;;0.47;;
48813;SDS011;34634;44.108;3.074;2023-03-12T13:57:26;1.60;;;0.70;;
48813;SDS011;34634;44.108;3.074;2023-03-12T13:59:54;1.48;;;0.73;;
48813;SDS011;34634;44.108;3.074;2023-03-12T14:02:23;1.55;;;0.50;;
48813;SDS011;34634;44.108;3.074;2023-03-12T14:04:50;1.10;;;0.52;;
48813;SDS011;34634;44.108;3.074;2023-03-12T14:07:29;2.75;;;0.70;;
48813;SDS011;34634;44.108;3.074;2023-03-12T14:10:05;2.58;;;0.40;;
48813;SDS011;34634;44.108;3.074;2023-03-12T14:15:10;1.48;;;0.43;;
48813;SDS011;34634;44.108;3.074;2023-03-12T14:17:39;1.80;;;0.60;;
48813;SDS011;34634;44.108;3.074;2023-03-12T14:22:38;2.08;;;0.73;;
48813;SDS011;34634;44.108;3.074;2023-03-12T14:27:45;1.85;;;0.80;;
48813;SDS011;34634;44.108;3.074;2023-03-12T14:30:15;0.90;;;0.60;;
48813;SDS011;34634;44.108;3.074;2023-03-12T14:32:44;1.80;;;0.60;;
48813;SDS011;34634;44.108;3.074;2023-03-12T14:40:18;1.48;;;0.50;;
48813;SDS011;34634;44.108;3.074;2023-03-12T14:42:45;1.60;;;0.60;;
48813;SDS011;34634;44.108;3.074;2023-03-12T14:45:13;1.02;;;0.60;;
48813;SDS011;34634;44.108;3.074;2023-03-12T14:47:40;0.73;;;0.50;;
48813;SDS011;34634;44.108;3.074;2023-03-12T14:50:21;1.90;;;1.27;;
48813;SDS011;34634;44.108;3.074;2023-03-12T14:52:48;2.92;;;1.88;;
48813;SDS011;34634;44.108;3.074;2023-03-12T14:55:15;0.60;;;0.60;;
48813;SDS011;34634;44.108;3.074;2023-03-12T14:57:42;6.35;;;3.92;;
48813;SDS011;34634;44.108;3.074;2023-03-12T15:02:47;1.63;;;0.52;;
48813;SDS011;34634;44.108;3.074;2023-03-12T15:05:15;1.27;;;0.45;;
48813;SDS011;34634;44.108;3.074;2023-03-12T15:07:41;1.50;;;1.40;;
48813;SDS011;34634;44.108;3.074;2023-03-12T15:10:24;1.52;;;1.02;;
48813;SDS011;34634;44.108;3.074;2023-03-12T15:12:51;0.68;;;0.30;;
48813;SDS011;34634;44.108;3.074;2023-03-12T15:17:48;1.10;;;0.40;;
48813;SDS011;34634;44.108;3.074;2023-03-12T15:20:15;0.73;;;0.70;;
48813;SDS011;34634;44.108;3.074;2023-03-12T15:22:41;0.30;;;0.30;;
48813;SDS011;34634;44.108;3.074;2023-03-12T15:25:22;0.73;;;0.55;;
48813;SDS011;34634;44.108;3.074;2023-03-12T15:27:58;0.50;;;0.40;;
48813;SDS011;34634;44.108;3.074;2023-03-12T15:30:25;0.95;;;0.35;;
48813;SDS011;34634;44.108;3.074;2023-03-12T15:33:02;0.50;;;0.30;;
48813;SDS011;34634;44.108;3.074;2023-03-12T15:35:29;0.68;;;0.47;;
48813;SDS011;34634;44.108;3.074;2023-03-12T15:37:55;0.65;;;0.32;;
48813;SDS011;34634;44.108;3.074;2023-03-12T15:40:23;0.57;;;0.40;;
48813;SDS011;34634;44.108;3.074;2023-03-12T15:42:49;0.20;;;0.20;;
48813;SDS011;34634;44.108;3.074;2023-03-12T15:45:20;0.85;;;0.40;;
48813;SDS011;34634;44.108;3.074;2023-03-12T15:47:47;0.98;;;0.32;;
48813;SDS011;34634;44.108;3.074;2023-03-12T15:50:18;1.00;;;0.40;;
48813;SDS011;34634;44.108;3.074;2023-03-12T15:55:28;2.03;;;0.40;;
48813;SDS011;34634;44.108;3.074;2023-03-12T15:57:55;1.17;;;0.50;;
48813;SDS011;34634;44.108;3.074;2023-03-12T16:00:26;1.88;;;0.43;;
48813;SDS011;34634;44.108;3.074;2023-03-12T16:05:20;1.35;;;0.40;;
48813;SDS011;34634;44.108;3.074;2023-03-12T16:07:47;0.50;;;0.30;;
48813;SDS011;34634;44.108;3.074;2023-03-12T16:10:15;1.40;;;0.30;;
48813;SDS011;34634;44.108;3.074;2023-03-12T16:12:42;0.85;;;0.50;;
48813;SDS011;34634;44.108;3.074;2023-03-12T16:15:15;0.85;;;0.40;;
48813;SDS011;34634;44.108;3.074;2023-03-12T16:17:42;1.40;;;0.40;;
48813;SDS011;34634;44.108;3.074;2023-03-12T16:20:10;0.88;;;0.20;;
48813;SDS011;34634;44.108;3.074;2023-03-12T16:22:37;0.40;;;0.40;;
48813;SDS011;34634;44.108;3.074;2023-03-12T16:25:04;2.53;;;0.40;;
48813;SDS011;34634;44.108;3.074;2023-03-12T16:27:30;2.50;;;0.50;;
48813;SDS011;34634;44.108;3.074;2023-03-12T16:30:11;2.92;;;0.80;;
48813;SDS011;34634;44.108;3.074;2023-03-12T16:32:39;2.00;;;0.60;;
48813;SDS011;34634;44.108;3.074;2023-03-12T16:35:12;2.17;;;0.50;;
48813;SDS011;34634;44.108;3.074;2023-03-12T16:37:38;0.68;;;0.30;;
48813;SDS011;34634;44.108;3.074;2023-03-12T16:40:05;1.17;;;0.45;;
48813;SDS011;34634;44.108;3.074;2023-03-12T16:42:31;0.80;;;0.40;;
48813;SDS011;34634;44.108;3.074;2023-03-12T16:45:01;1.85;;;0.43;;
48813;SDS011;34634;44.108;3.074;2023-03-12T16:47:28;0.88;;;0.30;;
48813;SDS011;34634;44.108;3.074;2023-03-12T16:49:55;1.30;;;0.40;;
48813;SDS011;34634;44.108;3.074;2023-03-12T16:52:22;1.30;;;0.40;;
48813;SDS011;34634;44.108;3.074;2023-03-12T16:54:51;1.55;;;0.50;;
48813;SDS011;34634;44.108;3.074;2023-03-12T16:57:34;0.30;;;0.30;;